Time;durP1;ratioP1;P1;durP2;ratioP2;P2;SDS_P1;SDS_P2;PMS_P1;PMS_P2;Temp;Humidity;BMP_temperature;BMP_pressure;BME280_temperature;BME280_humidity;BME280_pressure;Samples;Min_cycle;Max_cycle;Signal;HPM_P1;HPM_P2
2022/05/30 00:01:18;;;;;;;;;;;;;;;9.52;75.18;101371.78;4957173;28;20024;-76
2022/05/30 00:03:43;;;;;;;;;;;;;;;9.51;75.17;101370.09;4976395;28;19918;-76
2022/05/30 00:06:09;;;;;;;;;;;;;;;9.52;75.15;101366.41;4975209;28;20029;-76
2022/05/30 00:08:34;;;;;;;;;;;;;;;9.54;75.18;101369.78;4975430;28;19990;-76
2022/05/30 00:11:03;;;;;;;;;;;;;;;9.55;75.27;101366.91;4974898;28;20244;-76
2022/05/30 00:13:29;;;;;;;;;;;;;;;9.66;75.06;101358.56;4977093;28;20294;-76
2022/05/30 00:15:54;;;;;;;;;;;;;;;9.71;75.14;101352.69;4974994;28;19969;-75
2022/05/30 00:18:19;;;;;;;;;;;;;;;9.81;75.66;101353.38;4974622;28;19926;-75
2022/05/30 00:20:45;;;;;;;;;;;;;;;9.88;75.48;101350.91;4974635;28;19924;-75
2022/05/30 00:23:11;;;;;;;;;;;;;;;9.94;75.15;101344.00;4974060;28;19922;-74
2022/05/30 00:25:38;;;;;;;;;;;;;;;10.03;74.13;101348.38;4974752;28;19914;-75
2022/05/30 00:28:03;;;;;;;;;;;;;;;10.09;73.38;101347.75;4974563;28;19918;-75
2022/05/30 00:30:29;;;;;;;;;;;;;;;10.13;73.33;101348.25;4974919;28;20267;-76
2022/05/30 00:32:54;;;;;;;;;;;;;;;10.22;72.37;101347.25;4974050;28;19918;-75
2022/05/30 00:35:19;;;;;;;;;;;;;;;10.23;72.53;101340.84;4974163;28;20286;-75
2022/05/30 00:37:44;;;;;;;;;;;;;;;10.25;71.94;101347.75;4973816;28;19926;-75
2022/05/30 00:40:10;;;;;;;;;;;;;;;10.25;71.78;101341.53;4974072;28;19930;-77
2022/05/30 00:42:35;;;;;;;;;;;;;;;10.28;71.48;101344.75;4973537;28;19999;-76
2022/05/30 00:45:00;;;;;;;;;;;;;;;10.31;71.07;101346.25;4974504;28;19918;-76
2022/05/30 00:47:26;;;;;;;;;;;;;;;10.34;70.93;101340.53;4973861;28;20309;-77
2022/05/30 00:49:51;;;;;;;;;;;;;;;10.36;70.65;101335.00;4974221;28;19925;-77
2022/05/30 00:52:18;;;;;;;;;;;;;;;10.38;70.91;101335.69;4973321;28;19925;-77
2022/05/30 00:54:45;;;;;;;;;;;;;;;10.36;70.53;101333.16;4940674;28;20362;-76
2022/05/30 00:57:20;;;;;;;;;;;;;;;10.37;70.20;101332.13;4957517;28;19914;-75
2022/05/30 01:00:05;;;;;;;;;;;;;;;10.38;69.31;101335.69;4974298;28;19914;-76
2022/05/30 01:02:32;;;;;;;;;;;;;;;10.40;70.00;101328.25;4960291;28;20385;-75
2022/05/30 01:07:42;;;;;;;;;;;;;;;10.38;69.90;101325.75;4973778;28;19928;-76
2022/05/30 01:10:08;;;;;;;;;;;;;;;10.38;69.68;101330.31;4956874;28;20319;-77
2022/05/30 01:12:41;;;;;;;;;;;;;;;10.38;69.17;101330.31;4973667;28;19984;-77
2022/05/30 01:15:08;;;;;;;;;;;;;;;10.40;68.56;101328.25;4965629;28;19981;-76
2022/05/30 01:17:33;;;;;;;;;;;;;;;10.42;68.91;101327.09;4973042;28;19918;-77
2022/05/30 01:19:58;;;;;;;;;;;;;;;10.41;67.80;101322.72;4956675;28;19937;-77
2022/05/30 01:22:23;;;;;;;;;;;;;;;10.44;67.96;101325.06;4973345;28;19918;-77
2022/05/30 01:25:07;;;;;;;;;;;;;;;10.47;67.42;101326.59;4973632;28;19925;-77
2022/05/30 01:27:35;;;;;;;;;;;;;;;10.44;66.88;101321.53;4973753;28;20031;-77
2022/05/30 01:30:05;;;;;;;;;;;;;;;10.46;67.43;101327.59;4956382;28;19922;-76
2022/05/30 01:32:30;;;;;;;;;;;;;;;10.44;67.81;101321.53;4973009;28;19925;-77
2022/05/30 01:34:55;;;;;;;;;;;;;;;10.45;68.06;101317.84;4973029;28;19918;-77
2022/05/30 01:37:20;;;;;;;;;;;;;;;10.45;67.71;101315.13;4973423;28;19925;-77
2022/05/30 01:39:46;;;;;;;;;;;;;;;10.50;67.59;101312.78;4973930;28;19990;-77
2022/05/30 01:42:12;;;;;;;;;;;;;;;10.50;67.23;101312.78;4972955;28;19930;-77
2022/05/30 01:44:37;;;;;;;;;;;;;;;10.46;67.56;101306.91;4972720;28;20418;-77
2022/05/30 01:47:02;;;;;;;;;;;;;;;10.48;67.39;101312.13;4973516;28;20433;-77
2022/05/30 01:49:27;;;;;;;;;;;;;;;10.48;66.96;101312.13;4972764;28;19918;-77
2022/05/30 01:51:54;;;;;;;;;;;;;;;10.46;67.48;101306.06;4972188;28;19972;-75
2022/05/30 01:54:20;;;;;;;;;;;;;;;10.47;67.22;101302.38;4972529;28;19918;-75
2022/05/30 01:56:46;;;;;;;;;;;;;;;10.45;67.86;101305.25;4974019;28;19929;-75
2022/05/30 01:59:11;;;;;;;;;;;;;;;10.45;68.24;101304.38;4975829;28;20021;-76
2022/05/30 02:01:37;;;;;;;;;;;;;;;10.47;68.67;101305.06;4990121;28;19973;-75
2022/05/30 02:04:03;;;;;;;;;;;;;;;10.50;68.37;101304.72;4965768;28;19918;-76
2022/05/30 02:06:31;;;;;;;;;;;;;;;10.51;67.94;101298.34;4977613;28;19929;-75
2022/05/30 02:08:56;;;;;;;;;;;;;;;10.52;68.09;101294.63;4956405;28;19953;-77
2022/05/30 02:11:22;;;;;;;;;;;;;;;10.55;67.20;101299.66;4972964;28;20335;-76
2022/05/30 02:13:47;;;;;;;;;;;;;;;10.55;67.27;101294.28;4955368;28;19929;-77
2022/05/30 02:18:56;;;;;;;;;;;;;;;10.53;67.65;101301.66;4972694;28;20322;-75
2022/05/30 02:21:22;;;;;;;;;;;;;;;10.52;67.45;101300.00;4972221;28;19941;-75
2022/05/30 02:23:47;;;;;;;;;;;;;;;10.52;68.13;101305.38;4972072;28;20005;-77
2022/05/30 02:26:12;;;;;;;;;;;;;;;10.53;67.96;101297.16;4954771;28;19918;-76
2022/05/30 02:28:37;;;;;;;;;;;;;;;10.48;68.13;101296.00;4974867;28;19918;-77
2022/05/30 02:31:03;;;;;;;;;;;;;;;10.41;69.05;101292.28;4972675;28;19939;-76
2022/05/30 02:38:56;;;;;;;;;;;;;;;10.31;70.40;101292.47;4973201;28;19992;-75
2022/05/30 02:41:21;;;;;;;;;;;;;;;10.30;70.71;101294.31;4973302;28;19918;-76
2022/05/30 02:43:46;;;;;;;;;;;;;;;10.32;70.90;101300.38;4971821;28;19973;-76
2022/05/30 02:46:12;;;;;;;;;;;;;;;10.31;70.87;101295.97;4972215;28;20361;-75
2022/05/30 02:48:37;;;;;;;;;;;;;;;10.33;69.99;101296.66;4972239;28;19918;-75
2022/05/30 02:51:02;;;;;;;;;;;;;;;10.40;67.95;101290.59;4972049;28;20385;-76
2022/05/30 02:53:28;;;;;;;;;;;;;;;10.31;67.71;101290.59;4971299;28;19930;-75
2022/05/30 02:55:53;;;;;;;;;;;;;;;10.26;67.97;101290.22;4972504;28;19925;-76
2022/05/30 02:58:18;;;;;;;;;;;;;;;10.26;68.00;101289.41;4972838;28;20012;-76
2022/05/30 03:00:43;;;;;;;;;;;;;;;10.28;68.06;101293.63;4972374;28;19918;-76
2022/05/30 03:03:08;;;;;;;;;;;;;;;10.26;67.74;101298.31;4972161;28;19965;-76
2022/05/30 03:05:34;;;;;;;;;;;;;;;10.27;67.29;101291.97;4955012;28;20021;-76
2022/05/30 03:08:03;;;;;;;;;;;;;;;10.25;66.98;101288.56;4972050;28;20378;-74
2022/05/30 03:10:28;;;;;;;;;;;;;;;10.22;67.04;101283.53;4954777;28;19996;-76
2022/05/30 03:12:53;;;;;;;;;;;;;;;10.18;67.14;101287.53;4954079;28;20394;-76
2022/05/30 03:15:19;;;;;;;;;;;;;;;10.13;67.55;101283.69;4972028;28;19921;-76
2022/05/30 03:17:44;;;;;;;;;;;;;;;10.07;68.06;101282.50;4971019;28;19918;-75
2022/05/30 03:20:09;;;;;;;;;;;;;;;9.96;68.67;101288.22;4953906;28;19918;-75
2022/05/30 03:22:34;;;;;;;;;;;;;;;9.88;69.55;101291.75;4971776;28;19968;-76
2022/05/30 03:25:00;;;;;;;;;;;;;;;9.78;70.20;101285.69;4971720;28;19957;-76
2022/05/30 03:27:25;;;;;;;;;;;;;;;9.69;70.62;101287.53;4971608;28;19918;-76
2022/05/30 03:29:50;;;;;;;;;;;;;;;9.60;70.90;101277.75;4957166;28;19920;-77
2022/05/30 03:32:15;;;;;;;;;;;;;;;9.52;71.16;101275.06;4978334;28;19940;-76
2022/05/30 03:34:40;;;;;;;;;;;;;;;9.46;71.35;101281.94;4974172;28;19941;-77
2022/05/30 03:37:06;;;;;;;;;;;;;;;9.38;71.65;101282.75;4957829;28;19918;-76
2022/05/30 03:39:31;;;;;;;;;;;;;;;9.29;71.73;101286.38;4975210;28;19925;-76
2022/05/30 03:41:57;;;;;;;;;;;;;;;9.22;72.22;101288.06;4957250;28;20294;-76
2022/05/30 03:44:23;;;;;;;;;;;;;;;9.14;72.84;101293.41;4974759;28;20302;-76
2022/05/30 03:46:48;;;;;;;;;;;;;;;9.04;72.97;101292.69;4975257;28;19922;-76
2022/05/30 03:49:13;;;;;;;;;;;;;;;8.97;73.69;101298.69;4976899;28;20337;-76
2022/05/30 03:51:38;;;;;;;;;;;;;;;8.92;73.48;101298.31;4974996;28;20388;-76
2022/05/30 03:54:03;;;;;;;;;;;;;;;8.92;74.00;101294.78;4975045;28;19924;-76
2022/05/30 03:56:29;;;;;;;;;;;;;;;8.89;74.31;101304.00;4975062;28;19990;-76
2022/05/30 03:58:54;;;;;;;;;;;;;;;8.89;74.90;101295.97;4974824;28;19918;-76
2022/05/30 04:01:19;;;;;;;;;;;;;;;8.96;75.28;101302.38;4974905;28;19918;-75
2022/05/30 04:03:44;;;;;;;;;;;;;;;9.04;75.06;101292.69;4974797;28;19925;-78
2022/05/30 04:06:10;;;;;;;;;;;;;;;9.15;74.86;101300.44;4975055;28;20334;-78
2022/05/30 04:08:35;;;;;;;;;;;;;;;9.21;74.77;101294.41;4974866;28;19918;-75
2022/05/30 04:11:00;;;;;;;;;;;;;;;9.29;74.87;101297.13;4941360;28;19925;-77
2022/05/30 04:13:25;;;;;;;;;;;;;;;9.32;74.87;101294.16;4975005;28;19918;-77
2022/05/30 04:15:51;;;;;;;;;;;;;;;9.37;75.02;101288.25;4973697;28;19918;-76
2022/05/30 04:18:16;;;;;;;;;;;;;;;9.44;74.37;101290.13;4974660;28;19945;-77
2022/05/30 04:20:41;;;;;;;;;;;;;;;9.45;75.01;101278.41;4975279;28;19964;-77
2022/05/30 04:23:06;;;;;;;;;;;;;;;9.49;75.01;101280.75;4957594;28;20008;-76
2022/05/30 04:25:32;;;;;;;;;;;;;;;9.53;74.61;101279.41;4975057;28;20009;-75
2022/05/30 04:27:57;;;;;;;;;;;;;;;9.61;74.68;101274.03;4974589;28;20302;-76
2022/05/30 04:30:23;;;;;;;;;;;;;;;9.72;74.43;101278.28;4974780;28;19914;-77
2022/05/30 04:32:48;;;;;;;;;;;;;;;9.85;74.41;101279.47;4975364;28;19929;-77
2022/05/30 04:35:13;;;;;;;;;;;;;;;9.97;74.23;101273.75;4974239;28;20005;-75
2022/05/30 04:37:39;;;;;;;;;;;;;;;10.11;74.10;101275.81;4957694;28;20002;-77
2022/05/30 04:40:04;;;;;;;;;;;;;;;10.19;73.93;101278.50;4957302;28;20358;-77
2022/05/30 04:42:29;;;;;;;;;;;;;;;10.24;73.61;101284.19;4973720;28;19918;-77
2022/05/30 04:44:55;;;;;;;;;;;;;;;10.27;73.48;101285.72;4957134;28;19918;-77
2022/05/30 04:47:20;;;;;;;;;;;;;;;10.29;73.40;101281.00;4956344;28;20281;-77
2022/05/30 04:49:47;;;;;;;;;;;;;;;10.30;73.55;101280.84;4974617;28;20028;-75
2022/05/30 04:52:12;;;;;;;;;;;;;;;10.29;73.20;101283.69;4974131;28;19918;-77
2022/05/30 04:54:37;;;;;;;;;;;;;;;10.41;73.66;101281.53;4957270;28;20294;-76
2022/05/30 04:57:03;;;;;;;;;;;;;;;10.40;73.28;101279.81;4976277;28;20039;-75
2022/05/30 04:59:28;;;;;;;;;;;;;;;10.47;73.84;101281.66;4984779;28;20025;-77
2022/05/30 05:01:54;;;;;;;;;;;;;;;10.65;73.64;101280.63;4999521;28;19918;-77
2022/05/30 05:04:19;;;;;;;;;;;;;;;10.72;73.16;101278.94;4981993;28;19922;-77
2022/05/30 05:06:44;;;;;;;;;;;;;;;10.64;71.85;101282.50;4973826;28;20000;-77
2022/05/30 05:09:12;;;;;;;;;;;;;;;10.65;72.19;101284.16;4973311;28;20004;-77
2022/05/30 05:11:37;;;;;;;;;;;;;;;10.73;72.51;101289.53;4954815;28;20012;-77
2022/05/30 05:14:03;;;;;;;;;;;;;;;10.76;72.31;101294.56;4981869;28;20012;-76
2022/05/30 05:16:29;;;;;;;;;;;;;;;10.77;71.15;101292.72;4967326;28;20223;-77
2022/05/30 05:18:54;;;;;;;;;;;;;;;10.79;70.71;101301.44;4983593;28;20222;-75
2022/05/30 05:21:23;;;;;;;;;;;;;;;10.81;68.65;101295.91;4973467;28;20528;-76
2022/05/30 05:23:49;;;;;;;;;;;;;;;10.92;69.19;101290.16;4973515;28;19982;-76
2022/05/30 05:26:14;;;;;;;;;;;;;;;11.07;68.47;101299.19;4975962;28;19934;-77
2022/05/30 05:28:40;;;;;;;;;;;;;;;11.15;67.15;101284.84;4977564;28;19972;-76
2022/05/30 05:31:06;;;;;;;;;;;;;;;11.21;66.20;101293.06;4956239;28;19918;-77
2022/05/30 05:33:31;;;;;;;;;;;;;;;11.31;65.43;101289.31;4972770;28;19918;-77
2022/05/30 05:35:56;;;;;;;;;;;;;;;11.55;64.35;101296.44;4973254;28;20445;-77
2022/05/30 05:38:22;;;;;;;;;;;;;;;11.75;62.19;101294.16;4982681;28;20017;-76
2022/05/30 05:40:47;;;;;;;;;;;;;;;11.95;60.29;101294.53;4978079;28;19922;-76
2022/05/30 05:43:12;;;;;;;;;;;;;;;12.14;59.43;101291.34;4985548;28;19932;-77
2022/05/30 05:45:38;;;;;;;;;;;;;;;12.32;59.25;101290.19;4976006;28;19918;-77
2022/05/30 05:48:03;;;;;;;;;;;;;;;12.54;58.48;101296.56;4974006;28;19918;-77
2022/05/30 05:50:28;;;;;;;;;;;;;;;12.66;57.63;101295.91;4979793;28;19958;-75
2022/05/30 05:52:54;;;;;;;;;;;;;;;12.87;57.19;101297.88;4949863;28;19926;-77
2022/05/30 05:55:20;;;;;;;;;;;;;;;13.08;56.35;101299.00;4976687;28;20005;-77
2022/05/30 05:57:45;;;;;;;;;;;;;;;13.43;54.87;101299.28;4996500;28;19933;-77
2022/05/30 06:00:11;;;;;;;;;;;;;;;13.66;53.93;101299.97;4985555;28;19918;-77
2022/05/30 06:02:38;;;;;;;;;;;;;;;13.74;53.34;101304.41;4967066;28;19914;-77
2022/05/30 06:05:04;;;;;;;;;;;;;;;13.90;54.90;101301.50;4985810;28;19924;-76
2022/05/30 06:07:29;;;;;;;;;;;;;;;14.09;53.66;101302.72;4996986;28;19918;-77
2022/05/30 06:09:54;;;;;;;;;;;;;;;14.14;52.77;101305.69;4996122;28;19937;-77
2022/05/30 06:12:20;;;;;;;;;;;;;;;14.01;53.08;101302.84;4978333;28;19918;-78
2022/05/30 06:14:45;;;;;;;;;;;;;;;13.77;53.62;101314.84;4978836;28;19918;-76
2022/05/30 06:17:10;;;;;;;;;;;;;;;13.64;53.88;101315.56;4976059;28;19930;-77
2022/05/30 06:19:36;;;;;;;;;;;;;;;13.42;53.76;101313.81;4959919;28;19914;-76
2022/05/30 06:22:01;;;;;;;;;;;;;;;13.34;52.82;101309.38;4974880;28;19914;-78
2022/05/30 06:24:26;;;;;;;;;;;;;;;13.16;52.92;101313.28;4960279;28;19921;-77
2022/05/30 06:26:51;;;;;;;;;;;;;;;12.82;54.32;101311.13;4976324;28;19918;-75
2022/05/30 06:29:17;;;;;;;;;;;;;;;12.70;55.52;101318.00;4981556;28;19902;-78
2022/05/30 06:31:42;;;;;;;;;;;;;;;12.61;55.77;101308.28;4997478;28;19906;-77
2022/05/30 06:34:07;;;;;;;;;;;;;;;12.56;55.23;101306.16;4984289;28;19998;-78
2022/05/30 06:36:33;;;;;;;;;;;;;;;12.57;54.92;101313.22;4958874;28;20392;-78
2022/05/30 06:38:58;;;;;;;;;;;;;;;12.49;55.51;101307.91;4974811;28;20290;-77
2022/05/30 06:41:24;;;;;;;;;;;;;;;12.36;56.01;101308.53;4976788;28;19922;-76
2022/05/30 06:43:54;;;;;;;;;;;;;;;12.30;56.32;101310.09;4993430;28;20250;-76
2022/05/30 06:46:19;;;;;;;;;;;;;;;12.21;57.33;101319.28;4936290;28;19922;-76
2022/05/30 06:48:46;;;;;;;;;;;;;;;12.30;57.53;101320.06;4972296;28;19925;-76
2022/05/30 06:51:11;;;;;;;;;;;;;;;12.29;56.89;101321.91;4940843;28;20370;-76
2022/05/30 06:53:37;;;;;;;;;;;;;;;12.28;57.28;101314.84;4973789;28;19918;-77
2022/05/30 06:56:02;;;;;;;;;;;;;;;12.40;56.25;101317.09;4965433;28;20392;-77
2022/05/30 06:58:28;;;;;;;;;;;;;;;12.40;55.98;101322.50;4963125;28;20190;-76
2022/05/30 07:00:58;;;;;;;;;;;;;;;12.52;56.91;101319.19;4973366;28;19914;-77
2022/05/30 07:03:23;;;;;;;;;;;;;;;12.64;57.00;101321.44;4955595;28;20297;-75
2022/05/30 07:05:48;;;;;;;;;;;;;;;12.84;55.49;101322.56;4981588;28;19914;-76
2022/05/30 07:08:14;;;;;;;;;;;;;;;13.04;54.16;101319.34;4985793;28;19918;-76
2022/05/30 07:10:39;;;;;;;;;;;;;;;13.21;54.20;101320.81;4977035;28;19925;-76
2022/05/30 07:13:05;;;;;;;;;;;;;;;13.22;55.27;101319.78;4978222;28;19921;-76
2022/05/30 07:15:31;;;;;;;;;;;;;;;13.42;56.28;101322.78;4976607;28;20405;-76
2022/05/30 07:17:56;;;;;;;;;;;;;;;13.80;55.74;101326.16;4992052;28;20374;-76
2022/05/30 07:20:22;;;;;;;;;;;;;;;14.47;55.49;101322.19;4964017;28;19972;-77
2022/05/30 07:22:47;;;;;;;;;;;;;;;15.35;52.13;101327.19;4974405;28;19949;-76
2022/05/30 07:25:12;;;;;;;;;;;;;;;15.37;50.25;101325.06;4976570;28;19945;-74
2022/05/30 07:27:37;;;;;;;;;;;;;;;14.93;50.91;101326.31;4970499;28;19926;-77
2022/05/30 07:30:04;;;;;;;;;;;;;;;14.49;51.67;101330.97;4976553;28;20400;-76
2022/05/30 07:32:29;;;;;;;;;;;;;;;14.10;52.33;101326.03;4975290;28;19918;-76
2022/05/30 07:34:54;;;;;;;;;;;;;;;13.78;53.35;101328.19;4975726;28;19925;-76
2022/05/30 07:37:20;;;;;;;;;;;;;;;13.61;53.62;101324.03;4959035;28;20001;-76
2022/05/30 07:39:45;;;;;;;;;;;;;;;13.47;54.51;101327.63;4974812;28;19909;-76
2022/05/30 07:42:10;;;;;;;;;;;;;;;13.38;55.42;101326.91;4969454;28;19930;-76
2022/05/30 07:44:35;;;;;;;;;;;;;;;13.24;55.86;101330.41;4980226;28;20009;-76
2022/05/30 07:47:01;;;;;;;;;;;;;;;13.23;54.70;101324.16;4956882;28;19918;-76
2022/05/30 07:49:26;;;;;;;;;;;;;;;13.51;54.54;101331.63;4993778;28;19917;-74
2022/05/30 07:51:51;;;;;;;;;;;;;;;13.93;53.45;101330.88;4985550;28;19918;-77
2022/05/30 07:54:17;;;;;;;;;;;;;;;14.66;51.63;101325.28;4977673;28;19918;-76
2022/05/30 07:56:42;;;;;;;;;;;;;;;15.47;49.03;101322.81;4961357;28;19943;-75
2022/05/30 07:59:07;;;;;;;;;;;;;;;16.12;46.71;101320.53;4995501;28;19999;-78
2022/05/30 08:01:33;;;;;;;;;;;;;;;16.81;46.07;101329.34;4987921;28;19918;-76
2022/05/30 08:03:59;;;;;;;;;;;;;;;17.22;43.57;101323.63;4979846;28;20358;-75
2022/05/30 08:06:25;;;;;;;;;;;;;;;16.91;44.60;101328.91;4960164;28;19941;-75
2022/05/30 08:08:50;;;;;;;;;;;;;;;16.89;45.14;101320.97;4976066;28;19918;-78
2022/05/30 08:11:16;;;;;;;;;;;;;;;16.94;45.38;101323.88;4976997;28;19925;-77
2022/05/30 08:13:42;;;;;;;;;;;;;;;17.15;45.43;101322.78;4982120;28;19924;-77
2022/05/30 08:16:08;;;;;;;;;;;;;;;17.78;42.97;101328.38;4974322;28;19924;-77
2022/05/30 08:18:33;;;;;;;;;;;;;;;18.08;41.54;101322.34;4991623;28;19950;-76
2022/05/30 08:20:59;;;;;;;;;;;;;;;18.02;41.09;101317.78;4976605;28;19922;-78
2022/05/30 08:23:24;;;;;;;;;;;;;;;17.90;41.37;101320.38;4964667;28;19941;-76
2022/05/30 08:25:50;;;;;;;;;;;;;;;17.76;41.82;101322.31;4974974;28;19918;-77
2022/05/30 08:28:16;;;;;;;;;;;;;;;17.47;42.98;101326.44;4988118;28;19918;-78
2022/05/30 08:30:41;;;;;;;;;;;;;;;17.43;40.83;101327.06;4974794;28;20297;-78
2022/05/30 08:33:12;;;;;;;;;;;;;;;17.25;42.72;101341.38;4975299;28;19914;-76
2022/05/30 08:35:37;;;;;;;;;;;;;;;17.00;42.30;101333.06;4958747;28;19918;-75
2022/05/30 08:38:03;;;;;;;;;;;;;;;16.80;43.96;101341.28;4975551;28;19937;-75
2022/05/30 08:43:14;;;;;;;;;;;;;;;16.74;42.00;101340.19;4975053;28;19925;-75
2022/05/30 08:45:39;;;;;;;;;;;;;;;16.59;44.57;101343.13;4990739;28;19921;-76
2022/05/30 08:48:08;;;;;;;;;;;;;;;16.71;43.87;101339.78;4985206;28;19935;-75
2022/05/30 08:50:35;;;;;;;;;;;;;;;17.28;42.10;101341.78;4942576;28;19917;-76
2022/05/30 08:53:26;;;;;;;;;;;;;;;18.23;39.67;101343.03;4990700;28;19952;-77
2022/05/30 08:56:17;;;;;;;;;;;;;;;19.06;37.96;101343.56;4972692;28;20004;-75
2022/05/30 08:58:53;;;;;;;;;;;;;;;20.06;34.79;101341.50;4971539;28;19921;-76
2022/05/30 09:01:24;;;;;;;;;;;;;;;19.92;34.71;101349.06;4973003;28;20445;-77
2022/05/30 09:04:06;;;;;;;;;;;;;;;18.80;37.00;101341.94;4957282;28;19926;-77
2022/05/30 09:06:31;;;;;;;;;;;;;;;18.15;39.20;101349.56;4976121;28;19918;-77
2022/05/30 09:09:00;;;;;;;;;;;;;;;17.56;40.95;101348.78;4956602;28;19944;-78
2022/05/30 09:11:33;;;;;;;;;;;;;;;17.01;40.83;101342.88;4960271;28;20429;-78
2022/05/30 09:13:59;;;;;;;;;;;;;;;16.88;42.04;101351.94;4957992;28;19922;-77
2022/05/30 09:16:37;;;;;;;;;;;;;;;16.84;42.68;101354.22;4967997;28;19918;-77
2022/05/30 09:19:04;;;;;;;;;;;;;;;16.94;41.67;101345.63;4991693;28;20028;-77
2022/05/30 09:21:31;;;;;;;;;;;;;;;17.26;41.45;101354.75;4974718;28;19918;-77
2022/05/30 09:23:56;;;;;;;;;;;;;;;17.61;40.06;101348.97;4957954;28;20024;-77
2022/05/30 09:26:23;;;;;;;;;;;;;;;18.05;40.08;101350.03;4976509;28;20036;-77
2022/05/30 09:28:49;;;;;;;;;;;;;;;17.96;40.60;101349.47;4971425;28;19924;-78
2022/05/30 09:31:21;;;;;;;;;;;;;;;18.36;39.57;101354.66;4992906;28;19922;-78
2022/05/30 09:33:48;;;;;;;;;;;;;;;17.86;40.07;101351.00;4978954;28;19918;-78
2022/05/30 09:36:18;;;;;;;;;;;;;;;17.85;40.89;101354.75;4952805;28;19925;-76
2022/05/30 09:39:03;;;;;;;;;;;;;;;18.54;38.84;101353.88;4995068;28;19913;-78
2022/05/30 09:41:37;;;;;;;;;;;;;;;19.80;36.80;101359.09;4978929;28;19929;-77
2022/05/30 09:44:03;;;;;;;;;;;;;;;20.59;35.79;101359.84;4992405;28;20005;-77
2022/05/30 09:46:38;;;;;;;;;;;;;;;21.69;33.77;101352.69;5003952;28;19921;-75
2022/05/30 09:49:06;;;;;;;;;;;;;;;23.12;32.77;101357.13;4996570;28;19922;-75
2022/05/30 09:51:32;;;;;;;;;;;;;;;23.41;32.35;101353.09;4975465;28;20001;-76
2022/05/30 09:53:57;;;;;;;;;;;;;;;23.36;31.45;101354.97;4975054;28;19918;-79
2022/05/30 09:56:23;;;;;;;;;;;;;;;22.13;32.17;101359.31;4977619;28;19914;-76
2022/05/30 09:58:49;;;;;;;;;;;;;;;20.86;33.29;101356.66;4976249;28;20017;-76
2022/05/30 10:01:34;;;;;;;;;;;;;;;19.52;35.36;101358.56;4950977;28;19953;-77
2022/05/30 10:04:13;;;;;;;;;;;;;;;18.35;38.09;101368.47;4953008;28;19921;-76
2022/05/30 10:06:39;;;;;;;;;;;;;;;17.67;38.76;101358.19;4970083;28;20370;-76
2022/05/30 10:09:14;;;;;;;;;;;;;;;17.08;39.70;101358.16;4964154;28;20017;-76
2022/05/30 10:11:40;;;;;;;;;;;;;;;16.74;40.58;101350.22;4966331;28;19918;-76
2022/05/30 10:14:17;;;;;;;;;;;;;;;16.67;41.08;101355.69;4983676;28;20391;-77
2022/05/30 10:16:42;;;;;;;;;;;;;;;16.37;42.48;101355.25;4988100;28;20008;-77
2022/05/30 10:19:11;;;;;;;;;;;;;;;16.06;43.06;101353.97;4975091;28;19957;-75
2022/05/30 10:30:40;;;;;;;;;;;;;;;15.40;44.26;101368.06;4981008;28;19925;-75
2022/05/30 10:33:19;;;;;;;;;;;;;;;15.28;44.39;101367.81;4994715;28;19921;-77
2022/05/30 10:36:00;;;;;;;;;;;;;;;15.07;45.23;101374.16;4960474;28;20394;-77
2022/05/30 10:38:38;;;;;;;;;;;;;;;14.99;46.21;101374.31;4977094;28;19971;-77
2022/05/30 10:41:24;;;;;;;;;;;;;;;15.27;45.16;101376.13;4975817;28;20362;-75
2022/05/30 10:44:10;;;;;;;;;;;;;;;15.42;44.75;101374.13;4975283;28;19918;-76
2022/05/30 10:46:40;;;;;;;;;;;;;;;15.27;44.92;101377.00;4966465;28;19914;-76
2022/05/30 10:49:08;;;;;;;;;;;;;;;15.10;45.23;101376.47;4990156;28;19917;-75
2022/05/30 10:51:40;;;;;;;;;;;;;;;15.32;45.70;101381.78;4994315;28;19989;-76
2022/05/30 10:54:15;;;;;;;;;;;;;;;15.53;43.80;101370.88;4966583;28;19918;-77
2022/05/30 10:56:41;;;;;;;;;;;;;;;15.69;44.41;101374.28;4978731;28;19921;-75
2022/05/30 10:59:06;;;;;;;;;;;;;;;15.78;44.24;101375.78;4996411;28;19906;-78
2022/05/30 11:01:38;;;;;;;;;;;;;;;15.79;44.87;101380.16;5015571;28;19918;-78
2022/05/30 11:04:13;;;;;;;;;;;;;;;15.68;44.15;101383.44;5013856;28;19984;-76
2022/05/30 11:06:39;;;;;;;;;;;;;;;15.93;44.90;101371.03;4977563;28;19914;-76
2022/05/30 11:09:23;;;;;;;;;;;;;;;16.33;43.51;101376.56;4994450;28;20059;-77
2022/05/30 11:11:48;;;;;;;;;;;;;;;16.10;43.32;101373.38;4995725;28;19913;-76
2022/05/30 11:14:21;;;;;;;;;;;;;;;16.13;43.57;101371.06;4993080;28;20071;-76
2022/05/30 11:16:52;;;;;;;;;;;;;;;16.17;45.39;101375.06;4994151;28;19917;-75
2022/05/30 11:19:24;;;;;;;;;;;;;;;16.22;44.06;101375.28;4976472;28;19925;-76
2022/05/30 11:22:04;;;;;;;;;;;;;;;16.08;43.92;101376.28;4992789;28;20317;-76
2022/05/30 11:24:29;;;;;;;;;;;;;;;16.18;43.16;101379.44;4989123;28;20356;-76
2022/05/30 11:26:54;;;;;;;;;;;;;;;16.18;43.88;101373.19;4986280;28;19918;-76
2022/05/30 11:29:20;;;;;;;;;;;;;;;16.18;44.42;101373.19;4969612;28;19925;-76
2022/05/30 11:32:00;;;;;;;;;;;;;;;16.11;43.87;101366.91;4972606;28;19926;-77
2022/05/30 11:34:34;;;;;;;;;;;;;;;16.02;44.87;101372.53;4976998;28;19925;-76
2022/05/30 11:37:11;;;;;;;;;;;;;;;15.93;45.06;101371.03;4987909;28;20122;-76
2022/05/30 11:40:03;;;;;;;;;;;;;;;16.05;44.98;101370.44;4963886;28;19921;-76
2022/05/30 11:42:48;;;;;;;;;;;;;;;15.98;46.40;101365.84;4975191;28;19997;-77
2022/05/30 11:45:21;;;;;;;;;;;;;;;16.09;45.11;101374.41;4938576;28;19914;-76
2022/05/30 11:47:50;;;;;;;;;;;;;;;15.93;45.44;101373.75;4974587;28;19961;-76
2022/05/30 11:50:15;;;;;;;;;;;;;;;16.08;46.60;101380.88;4956692;28;19925;-76
2022/05/30 11:52:59;;;;;;;;;;;;;;;16.23;46.01;101376.13;4958644;28;20290;-76
2022/05/30 11:55:30;;;;;;;;;;;;;;;16.78;44.01;101373.25;4966935;28;19925;-76
2022/05/30 11:58:06;;;;;;;;;;;;;;;16.99;41.32;101369.47;4958067;28;19921;-77
2022/05/30 12:00:32;;;;;;;;;;;;;;;17.12;42.13;101374.91;4959509;28;20064;-76
2022/05/30 12:03:01;;;;;;;;;;;;;;;17.48;42.20;101362.63;4976870;28;20015;-76
2022/05/30 12:05:30;;;;;;;;;;;;;;;17.83;41.25;101375.94;4974077;28;19918;-77
2022/05/30 12:07:59;;;;;;;;;;;;;;;17.89;41.08;101378.63;4956360;28;19922;-76
2022/05/30 12:10:26;;;;;;;;;;;;;;;17.62;40.79;101374.34;4974660;28;19918;-76
2022/05/30 12:12:51;;;;;;;;;;;;;;;17.52;41.51;101374.78;4975406;28;20000;-77
2022/05/30 12:15:20;;;;;;;;;;;;;;;17.23;42.84;101371.50;4963688;28;20013;-77
2022/05/30 12:24:04;;;;;;;;;;;;;;;16.73;45.00;101371.13;4967917;28;19957;-76
2022/05/30 12:26:54;;;;;;;;;;;;;;;16.73;44.02;101371.13;4975116;28;19925;-76
2022/05/30 12:29:37;;;;;;;;;;;;;;;16.74;43.58;101380.13;4974799;28;20326;-76
2022/05/30 12:32:09;;;;;;;;;;;;;;;16.63;43.53;101376.16;4988320;28;20054;-77
2022/05/30 12:34:54;;;;;;;;;;;;;;;16.57;44.07;101375.09;4973115;28;19918;-77
2022/05/30 12:37:41;;;;;;;;;;;;;;;16.45;44.25;101374.03;4985247;28;19918;-76
2022/05/30 12:40:10;;;;;;;;;;;;;;;16.28;44.41;101367.38;4994477;28;19921;-75
2022/05/30 12:42:36;;;;;;;;;;;;;;;16.14;45.98;101369.19;4973937;28;19933;-77
2022/05/30 12:45:17;;;;;;;;;;;;;;;16.43;45.24;101370.72;4941349;28;19914;-75
2022/05/30 12:47:52;;;;;;;;;;;;;;;16.79;44.42;101364.06;4987500;28;20281;-77
2022/05/30 12:50:30;;;;;;;;;;;;;;;16.98;43.29;101362.34;4964955;28;19961;-77
2022/05/30 12:52:59;;;;;;;;;;;;;;;16.80;43.49;101365.75;4982443;28;19914;-77
2022/05/30 12:55:41;;;;;;;;;;;;;;;16.78;43.90;101368.66;4958006;28;19921;-77
2022/05/30 12:58:07;;;;;;;;;;;;;;;16.66;44.27;101362.13;4938892;28;19918;-77
2022/05/30 13:00:36;;;;;;;;;;;;;;;16.48;45.38;101359.22;4973703;28;19914;-76
2022/05/30 13:03:08;;;;;;;;;;;;;;;16.29;43.76;101358.16;4974155;28;19918;-76
2022/05/30 13:05:39;;;;;;;;;;;;;;;16.07;45.00;101357.50;4975444;28;19914;-76
2022/05/30 13:08:23;;;;;;;;;;;;;;;16.02;45.46;101353.50;4975725;28;19949;-76
2022/05/30 13:10:48;;;;;;;;;;;;;;;16.19;45.11;101358.56;4990319;28;19957;-76